Time;durP1;ratioP1;P1;durP2;ratioP2;P2;SDS_P1;SDS_P2;PMS_P1;PMS_P2;Temp;Humidity;BMP_temperature;BMP_pressure;BME280_temperature;BME280_humidity;BME280_pressure;Samples;Min_cycle;Max_cycle;Signal;HPM_P1;HPM_P2
2023/07/30 00:01:54;;;;;;;0.50;0.50;;;;;;;25.13;54.75;99121.47;5051274;28;20207;-70
2023/07/30 00:04:21;;;;;;;0.60;0.60;;;;;;;24.81;54.97;99067.63;5050746;28;20644;-70
2023/07/30 00:06:47;;;;;;;0.57;0.57;;;;;;;24.97;54.81;99107.19;5050688;28;20300;-70
2023/07/30 00:09:14;;;;;;;5.60;0.93;;;;;;;24.96;55.35;99107.31;5051364;28;20310;-70
2023/07/30 00:11:41;;;;;;;2.40;0.90;;;;;;;24.91;55.86;99113.00;5051393;28;20201;-70
2023/07/30 00:14:09;;;;;;;0.60;0.60;;;;;;;24.74;56.52;99089.31;5051327;28;20204;-70
2023/07/30 00:16:36;;;;;;;0.70;0.70;;;;;;;24.86;56.68;99110.00;5050680;28;20224;-70
2023/07/30 00:19:03;;;;;;;0.47;0.47;;;;;;;24.83;57.06;99107.66;5042719;28;20262;-70
2023/07/30 00:21:29;;;;;;;0.50;0.50;;;;;;;24.81;56.62;99109.56;5050968;28;20200;-70
2023/07/30 00:23:56;;;;;;;0.60;0.60;;;;;;;24.78;56.71;99104.59;5051181;28;20266;-70
2023/07/30 00:26:26;;;;;;;0.70;0.70;;;;;;;24.75;57.66;99112.72;5050460;28;20291;-70
2023/07/30 00:28:52;;;;;;;0.50;0.50;;;;;;;24.73;57.29;99103.38;5051517;28;20664;-70
2023/07/30 00:31:21;;;;;;;0.80;0.80;;;;;;;24.72;57.87;99105.16;5051008;28;20207;-70
2023/07/30 00:33:47;;;;;;;0.50;0.50;;;;;;;24.70;58.01;99107.09;5050642;28;20200;-70
2023/07/30 00:36:14;;;;;;;0.43;0.43;;;;;;;24.69;58.07;99108.06;5050367;28;20251;-69
2023/07/30 00:38:41;;;;;;;0.60;0.60;;;;;;;24.68;58.14;99100.34;5050846;28;20197;-70
2023/07/30 00:41:08;;;;;;;0.60;0.60;;;;;;;24.68;58.71;99102.97;5050865;28;20730;-70
2023/07/30 00:43:34;;;;;;;0.40;0.40;;;;;;;24.68;58.75;99103.81;5051033;28;20197;-70
2023/07/30 00:46:01;;;;;;;0.60;0.60;;;;;;;24.65;58.92;99104.09;5050869;28;20220;-70
2023/07/30 00:48:30;;;;;;;0.53;0.53;;;;;;;24.64;59.05;99105.06;5050885;28;20568;-69
2023/07/30 00:50:58;;;;;;;5.70;0.93;;;;;;;24.59;57.93;99111.69;5050717;28;20201;-69
2023/07/30 00:53:27;;;;;;;0.60;0.60;;;;;;;24.47;57.21;99108.41;5050569;28;20303;-70
2023/07/30 00:55:54;;;;;;;0.80;0.80;;;;;;;24.42;56.35;99108.00;5050444;28;20197;-70
2023/07/30 00:58:22;;;;;;;0.60;0.60;;;;;;;24.36;56.91;99111.19;5050414;28;20275;-70
2023/07/30 01:00:49;;;;;;;1.10;0.70;;;;;;;24.29;57.13;99110.94;5050544;28;20209;-69
2023/07/30 01:03:15;;;;;;;0.60;0.60;;;;;;;24.25;57.53;99116.56;5049012;28;20291;-70
2023/07/30 01:05:45;;;;;;;0.60;0.60;;;;;;;24.09;58.53;99101.38;5050618;28;20224;-69
2023/07/30 01:08:12;;;;;;;0.87;0.87;;;;;;;24.12;58.77;99118.63;5050132;28;20208;-69
2023/07/30 01:10:41;;;;;;;0.50;0.50;;;;;;;24.10;59.33;99108.28;5049242;28;20197;-69
2023/07/30 01:13:10;;;;;;;0.80;0.80;;;;;;;24.07;59.60;99116.44;5050420;28;20205;-69
2023/07/30 01:15:38;;;;;;;0.63;0.63;;;;;;;24.02;60.08;99114.22;5050282;28;20196;-69
2023/07/30 01:18:05;;;;;;;0.50;0.50;;;;;;;23.91;60.28;99106.47;5037768;28;20205;-69
2023/07/30 01:20:32;;;;;;;0.43;0.43;;;;;;;23.95;60.53;99115.72;5029034;28;20217;-70
2023/07/30 01:23:01;;;;;;;0.50;0.50;;;;;;;23.93;60.73;99120.28;5029796;28;20266;-69
2023/07/30 01:25:30;;;;;;;0.80;0.80;;;;;;;23.88;61.33;99114.59;5030427;28;20221;-69
2023/07/30 01:28:01;;;;;;;0.67;0.67;;;;;;;23.81;61.43;99120.53;5031066;28;20205;-69
2023/07/30 01:30:31;;;;;;;0.47;0.47;;;;;;;23.74;61.26;99115.03;5028006;28;20204;-69
2023/07/30 01:32:59;;;;;;;1.67;0.97;;;;;;;23.70;61.68;99129.34;5030608;28;20699;-69
2023/07/30 01:35:28;;;;;;;0.93;0.93;;;;;;;23.65;61.50;99130.72;5030182;28;20669;-69
2023/07/30 01:37:56;;;;;;;0.50;0.50;;;;;;;23.65;61.15;99125.47;5029822;28;20205;-69
2023/07/30 01:40:24;;;;;;;0.50;0.50;;;;;;;23.63;61.52;99122.97;5029870;28;20212;-69
2023/07/30 01:42:51;;;;;;;0.50;0.50;;;;;;;23.60;61.11;99118.03;5029802;28;20585;-69
2023/07/30 01:45:17;;;;;;;0.50;0.50;;;;;;;23.58;61.33;99125.19;5030197;28;20728;-69
2023/07/30 01:47:44;;;;;;;0.60;0.60;;;;;;;23.57;61.51;99127.94;5029911;28;20200;-69
2023/07/30 01:50:11;;;;;;;0.60;0.60;;;;;;;23.55;62.10;99125.47;5030129;28;20206;-69
2023/07/30 01:52:38;;;;;;;0.87;0.87;;;;;;;23.55;61.74;99128.09;5030346;28;20256;-69
2023/07/30 01:55:06;;;;;;;0.70;0.70;;;;;;;23.46;62.05;99116.59;5029633;28;20267;-69
2023/07/30 01:57:34;;;;;;;0.50;0.50;;;;;;;23.53;61.20;99124.75;5029356;28;20205;-69
2023/07/30 02:00:01;;;;;;;1.40;0.80;;;;;;;23.50;61.57;99122.41;5028628;28;20197;-69
2023/07/30 02:02:27;;;;;;;0.70;0.70;;;;;;;23.46;61.63;99121.00;5029112;28;20202;-69
2023/07/30 02:04:54;;;;;;;0.60;0.60;;;;;;;23.41;61.48;99118.81;5030610;28;20225;-69
2023/07/30 02:07:21;;;;;;;0.50;0.50;;;;;;;23.42;61.65;99124.88;5030588;28;20213;-69
2023/07/30 02:09:47;;;;;;;0.50;0.50;;;;;;;23.40;62.12;99122.38;5029597;28;20208;-69
2023/07/30 02:12:14;;;;;;;0.40;0.40;;;;;;;23.38;62.18;99126.06;5029960;28;20197;-69
2023/07/30 02:14:42;;;;;;;0.53;0.53;;;;;;;23.37;61.89;99127.03;5029696;28;20681;-69
2023/07/30 02:17:09;;;;;;;0.47;0.47;;;;;;;23.34;62.46;99129.91;5042524;28;20221;-69
2023/07/30 02:19:36;;;;;;;0.60;0.60;;;;;;;23.31;62.62;99125.78;5049776;28;20561;-69
2023/07/30 02:22:02;;;;;;;0.43;0.43;;;;;;;23.24;62.73;99129.88;5048303;28;20212;-69
2023/07/30 02:24:29;;;;;;;0.40;0.40;;;;;;;23.20;63.18;99135.53;5049205;28;20203;-69
2023/07/30 02:26:56;;;;;;;0.60;0.60;;;;;;;23.16;62.89;99131.50;5048937;28;20250;-69
2023/07/30 02:29:23;;;;;;;0.50;0.50;;;;;;;23.12;62.76;99127.50;5048825;28;20205;-69
2023/07/30 02:31:51;;;;;;;0.73;0.60;;;;;;;23.08;63.77;99132.16;5049116;28;20208;-69
2023/07/30 02:34:17;;;;;;;0.90;0.90;;;;;;;23.05;63.66;99131.59;5049690;28;20673;-69
2023/07/30 02:36:44;;;;;;;0.50;0.50;;;;;;;23.01;64.22;99136.25;5049345;28;20298;-69
2023/07/30 02:39:11;;;;;;;0.50;0.50;;;;;;;22.96;63.84;99138.44;5048298;28;20200;-69
2023/07/30 02:41:38;;;;;;;0.63;0.63;;;;;;;22.91;64.52;99146.66;5048703;28;20200;-69
2023/07/30 02:44:05;;;;;;;0.50;0.50;;;;;;;22.90;64.96;99150.25;5052502;28;20676;-69
2023/07/30 02:46:31;;;;;;;0.67;0.67;;;;;;;22.88;65.38;99152.16;5052929;28;20638;-69
2023/07/30 02:49:00;;;;;;;0.70;0.70;;;;;;;22.86;65.19;99156.69;5052613;28;20204;-69
2023/07/30 02:51:26;;;;;;;0.57;0.57;;;;;;;22.86;65.81;99156.69;5052997;28;20668;-69
2023/07/30 02:53:54;;;;;;;0.53;0.53;;;;;;;22.86;65.78;99154.06;5052466;28;20255;-69
2023/07/30 02:56:20;;;;;;;0.67;0.60;;;;;;;22.84;65.62;99155.16;5052442;28;20295;-69
2023/07/30 02:58:47;;;;;;;0.50;0.50;;;;;;;22.79;65.83;99163.38;5052209;28;20677;-69
2023/07/30 03:01:14;;;;;;;0.57;0.57;;;;;;;22.80;65.45;99161.59;5052863;28;20208;-69
2023/07/30 03:03:41;;;;;;;0.60;0.60;;;;;;;22.76;65.50;99161.03;5052455;28;20639;-69
2023/07/30 03:06:09;;;;;;;1.03;1.03;;;;;;;22.74;65.82;99160.34;5052530;28;20228;-69
2023/07/30 03:08:36;;;;;;;0.60;0.60;;;;;;;22.74;66.13;99168.19;5052551;28;20664;-69
2023/07/30 03:11:03;;;;;;;0.60;0.60;;;;;;;22.73;66.22;99163.06;5052684;28;20226;-69
2023/07/30 03:13:30;;;;;;;0.50;0.50;;;;;;;22.72;65.89;99167.47;5052083;28;20213;-69
2023/07/30 03:15:57;;;;;;;0.67;0.67;;;;;;;22.67;66.10;99177.47;5052661;28;20596;-69
2023/07/30 03:18:24;;;;;;;0.53;0.53;;;;;;;22.64;66.81;99177.72;5052160;28;20201;-69
2023/07/30 03:20:50;;;;;;;0.40;0.40;;;;;;;22.60;67.24;99178.91;5052247;28;20207;-69
2023/07/30 03:23:18;;;;;;;0.33;0.33;;;;;;;22.59;67.65;99176.41;5051446;28;20209;-69
2023/07/30 03:25:45;;;;;;;0.50;0.50;;;;;;;22.55;67.29;99178.47;5051955;28;20275;-69
2023/07/30 03:28:12;;;;;;;0.53;0.53;;;;;;;22.54;67.65;99173.38;5051967;28;20257;-69
2023/07/30 03:30:39;;;;;;;0.57;0.57;;;;;;;22.53;67.48;99177.75;5052224;28;20205;-69
2023/07/30 03:33:05;;;;;;;0.70;0.70;;;;;;;22.54;67.11;99179.44;5051745;28;20204;-69
2023/07/30 03:35:32;;;;;;;0.30;0.30;;;;;;;22.50;66.99;99180.63;5051837;28;20257;-69
2023/07/30 03:37:59;;;;;;;0.50;0.50;;;;;;;22.49;67.19;99176.34;5052361;28;20201;-69
2023/07/30 03:40:27;;;;;;;0.70;0.70;;;;;;;22.48;67.17;99174.72;5051626;28;20200;-69
2023/07/30 03:42:54;;;;;;;0.50;0.50;;;;;;;22.47;66.84;99178.28;5052168;28;20580;-69
2023/07/30 03:45:21;;;;;;;0.70;0.70;;;;;;;22.44;67.49;99173.28;5051454;28;20228;-69
2023/07/30 03:47:47;;;;;;;0.50;0.50;;;;;;;22.42;68.24;99170.00;5051151;28;20212;-69
2023/07/30 03:50:14;;;;;;;0.70;0.70;;;;;;;22.43;68.38;99177.69;5051916;28;20207;-69
2023/07/30 03:52:40;;;;;;;0.50;0.50;;;;;;;22.45;68.63;99178.41;5050900;28;20212;-69
2023/07/30 03:55:07;;;;;;;0.50;0.50;;;;;;;22.43;68.90;99180.31;5051799;28;20208;-69
2023/07/30 03:57:35;;;;;;;0.60;0.60;;;;;;;22.48;68.80;99180.75;5051449;28;20209;-69
2023/07/30 04:00:03;;;;;;;0.60;0.60;;;;;;;22.55;69.23;99180.25;5051123;28;20262;-70
2023/07/30 04:02:29;;;;;;;0.60;0.60;;;;;;;22.61;68.86;99180.56;5051206;28;20251;-69
2023/07/30 04:04:56;;;;;;;0.50;0.50;;;;;;;22.66;68.88;99194.09;5051458;28;20212;-70
2023/07/30 04:07:23;;;;;;;4.57;0.60;;;;;;;22.75;68.69;99195.94;5051044;28;20266;-70
2023/07/30 04:09:50;;;;;;;0.70;0.70;;;;;;;22.84;68.90;99189.94;5050949;28;20204;-69
2023/07/30 04:12:17;;;;;;;1.23;0.60;;;;;;;22.92;68.46;99190.16;5050999;28;20205;-69
2023/07/30 04:14:46;;;;;;;0.50;0.50;;;;;;;23.01;68.19;99188.53;5050847;28;20212;-69
2023/07/30 04:17:12;;;;;;;0.60;0.60;;;;;;;23.09;68.80;99190.50;5051403;28;20228;-69
2023/07/30 04:19:39;;;;;;;0.50;0.50;;;;;;;23.17;68.66;99193.28;5051034;28;20588;-69
2023/07/30 04:22:06;;;;;;;1.50;0.70;;;;;;;23.30;69.67;99199.13;5050936;28;20250;-69
2023/07/30 04:24:33;;;;;;;0.60;0.60;;;;;;;23.42;69.83;99204.19;5051038;28;20212;-69
2023/07/30 04:27:01;;;;;;;0.50;0.50;;;;;;;23.58;70.27;99198.47;5050569;28;20255;-69
2023/07/30 04:29:28;;;;;;;0.63;0.63;;;;;;;23.73;68.43;99207.59;5051203;28;20294;-69
2023/07/30 04:31:57;;;;;;;0.70;0.70;;;;;;;23.85;67.79;99203.91;5050725;28;20254;-69
2023/07/30 04:34:23;;;;;;;0.50;0.50;;;;;;;24.00;67.32;99205.19;5050705;28;20238;-69
2023/07/30 04:36:50;;;;;;;0.50;0.50;;;;;;;24.17;66.91;99216.00;5050664;28;20200;-69
2023/07/30 04:39:17;;;;;;;0.43;0.43;;;;;;;24.33;66.63;99214.47;5049782;28;20203;-69
2023/07/30 04:41:44;;;;;;;0.67;0.67;;;;;;;24.54;66.83;99222.19;5050860;28;20201;-68
2023/07/30 04:44:10;;;;;;;1.23;0.60;;;;;;;24.67;64.86;99209.63;5050722;28;20295;-69
2023/07/30 04:46:37;;;;;;;0.63;0.63;;;;;;;24.84;64.02;99206.34;5050524;28;20224;-69
2023/07/30 04:49:05;;;;;;;0.40;0.40;;;;;;;25.04;64.39;99207.91;5050451;28;20725;-69
2023/07/30 04:51:32;;;;;;;0.47;0.47;;;;;;;25.25;63.59;99214.78;5050626;28;20200;-70
2023/07/30 04:53:59;;;;;;;0.50;0.50;;;;;;;25.48;63.15;99200.31;5049396;28;20204;-69
2023/07/30 04:56:26;;;;;;;0.60;0.60;;;;;;;25.68;62.66;99204.53;5047874;28;20250;-70
2023/07/30 04:58:53;;;;;;;0.60;0.60;;;;;;;25.90;60.76;99204.13;5049944;28;20200;-69
2023/07/30 05:01:20;;;;;;;0.73;0.73;;;;;;;26.10;59.92;99208.28;5049561;28;20232;-69
2023/07/30 05:03:47;;;;;;;0.57;0.57;;;;;;;26.31;59.84;99205.38;5049493;28;20668;-69
2023/07/30 05:06:16;;;;;;;0.47;0.47;;;;;;;26.51;57.40;99211.31;5048557;28;20221;-69
2023/07/30 05:08:42;;;;;;;0.63;0.63;;;;;;;26.73;56.57;99205.56;5050140;28;20200;-69
2023/07/30 05:11:09;;;;;;;0.43;0.43;;;;;;;26.86;56.32;99206.03;5049960;28;20200;-69
2023/07/30 05:13:36;;;;;;;0.53;0.53;;;;;;;27.06;55.28;99204.84;5050493;28;20201;-69
2023/07/30 05:16:03;;;;;;;0.60;0.60;;;;;;;27.25;54.49;99208.22;5049612;28;20235;-69
2023/07/30 05:18:30;;;;;;;0.80;0.80;;;;;;;27.43;53.88;99209.00;5034059;28;20201;-69
2023/07/30 05:20:56;;;;;;;1.37;0.57;;;;;;;27.62;54.37;99211.41;5030111;28;20201;-69
2023/07/30 05:23:25;;;;;;;0.40;0.40;;;;;;;27.83;51.19;99217.06;5029658;28;20202;-69
2023/07/30 05:25:51;;;;;;;0.40;0.40;;;;;;;27.89;50.81;99213.78;5043614;28;20726;-70
2023/07/30 05:28:18;;;;;;;0.67;0.67;;;;;;;28.08;50.13;99213.53;5028516;28;20201;-70
2023/07/30 05:30:45;;;;;;;0.87;0.87;;;;;;;28.34;50.55;99209.94;5029671;28;20198;-70
2023/07/30 05:33:12;;;;;;;0.83;0.80;;;;;;;28.44;46.04;99219.34;5024580;28;20620;-69
2023/07/30 05:35:38;;;;;;;2.03;0.53;;;;;;;28.51;46.23;99222.97;5029561;28;20333;-70
2023/07/30 05:38:05;;;;;;;0.50;0.50;;;;;;;28.62;47.13;99224.47;5029365;28;20217;-69
2023/07/30 05:40:33;;;;;;;3.03;0.67;;;;;;;28.76;45.53;99231.75;5030228;28;20578;-69
2023/07/30 05:43:01;;;;;;;0.50;0.50;;;;;;;28.90;47.04;99217.06;5030579;28;20209;-70
2023/07/30 05:45:27;;;;;;;0.50;0.50;;;;;;;29.06;47.23;99217.84;5027386;28;20641;-69
2023/07/30 05:47:54;;;;;;;0.50;0.50;;;;;;;29.30;47.83;99219.66;5030121;28;20316;-70
2023/07/30 05:50:21;;;;;;;0.93;0.50;;;;;;;29.48;46.25;99222.06;5029659;28;20632;-70
2023/07/30 05:52:48;;;;;;;0.40;0.40;;;;;;;29.70;44.42;99221.31;5032350;28;20205;-69
2023/07/30 05:55:15;;;;;;;0.80;0.80;;;;;;;29.86;43.26;99226.53;5035518;28;20217;-70
2023/07/30 05:57:43;;;;;;;0.52;0.52;;;;;;;30.04;43.81;99226.28;5028482;28;20660;-70
2023/07/30 06:00:10;;;;;;;0.30;0.30;;;;;;;30.10;43.02;99231.69;5029635;28;20213;-70
2023/07/30 06:02:37;;;;;;;0.60;0.60;;;;;;;30.34;42.55;99224.63;5029292;28;20202;-69
2023/07/30 06:05:04;;;;;;;0.55;0.55;;;;;;;30.45;42.38;99216.28;5029889;28;20216;-69
2023/07/30 06:07:31;;;;;;;0.70;0.70;;;;;;;30.54;41.31;99217.84;5030080;28;20220;-70
2023/07/30 06:09:58;;;;;;;0.60;0.60;;;;;;;30.75;43.50;99223.31;5029559;28;20271;-70
2023/07/30 06:12:25;;;;;;;0.57;0.57;;;;;;;30.97;44.08;99217.19;5029851;28;20197;-70
2023/07/30 06:14:53;;;;;;;0.60;0.60;;;;;;;31.18;43.00;99219.91;5031232;28;20614;-69
2023/07/30 06:17:19;;;;;;;0.65;0.65;;;;;;;31.37;43.44;99215.94;5046581;28;20229;-69
2023/07/30 06:19:46;;;;;;;0.57;0.57;;;;;;;31.55;42.27;99210.25;5050825;28;20703;-69
2023/07/30 06:22:13;;;;;;;0.47;0.47;;;;;;;31.71;40.41;99215.38;5053398;28;20204;-70
2023/07/30 06:24:40;;;;;;;1.05;0.47;;;;;;;31.84;39.76;99215.53;5053317;28;20205;-70
2023/07/30 06:27:06;;;;;;;0.63;0.63;;;;;;;31.85;39.27;99214.53;5052401;28;20581;-69
2023/07/30 06:29:33;;;;;;;1.52;0.52;;;;;;;31.71;39.15;99210.06;5053261;28;20712;-69
2023/07/30 06:32:01;;;;;;;0.60;0.60;;;;;;;31.73;39.44;99210.69;5052806;28;20200;-69
2023/07/30 06:34:28;;;;;;;0.40;0.40;;;;;;;31.66;38.93;99204.50;5052869;28;20200;-69
2023/07/30 06:36:55;;;;;;;0.52;0.52;;;;;;;31.72;41.07;99206.41;5053190;28;20196;-69
2023/07/30 06:39:22;;;;;;;0.80;0.80;;;;;;;31.73;38.37;99205.38;5052289;28;20208;-70
2023/07/30 06:41:49;;;;;;;0.40;0.40;;;;;;;31.74;39.85;99204.38;5052733;28;20235;-70
2023/07/30 06:44:16;;;;;;;0.45;0.45;;;;;;;31.93;39.76;99203.78;5052186;28;20219;-70
2023/07/30 06:46:42;;;;;;;0.55;0.55;;;;;;;32.11;43.39;99196.28;5051706;28;20221;-70
2023/07/30 06:49:10;;;;;;;0.82;0.82;;;;;;;32.40;43.64;99197.16;5052270;28;20209;-70
2023/07/30 06:51:37;;;;;;;0.60;0.60;;;;;;;32.63;37.70;99203.09;5051801;28;20200;-71
2023/07/30 06:54:04;;;;;;;0.43;0.43;;;;;;;32.72;39.35;99207.25;5042871;28;20611;-71
2023/07/30 06:56:31;;;;;;;0.73;0.50;;;;;;;32.92;40.26;99202.09;5050703;28;20742;-70
2023/07/30 06:58:58;;;;;;;0.60;0.60;;;;;;;33.15;38.74;99190.22;5051894;28;20212;-71
2023/07/30 07:01:25;;;;;;;0.68;0.68;;;;;;;33.37;37.79;99187.47;5052032;28;20201;-69
2023/07/30 07:03:51;;;;;;;0.70;0.70;;;;;;;33.35;36.42;99189.50;5052348;28;20204;-71
2023/07/30 07:06:19;;;;;;;0.50;0.50;;;;;;;33.51;36.03;99184.66;5051612;28;20262;-71
2023/07/30 07:08:46;;;;;;;0.40;0.40;;;;;;;33.66;36.75;99171.28;5052180;28;20679;-70
2023/07/30 07:11:13;;;;;;;0.68;0.63;;;;;;;33.77;34.18;99174.16;5050081;28;20792;-71
2023/07/30 07:13:40;;;;;;;0.85;0.85;;;;;;;33.84;38.30;99174.19;5051537;28;20200;-70
2023/07/30 07:16:06;;;;;;;0.57;0.57;;;;;;;33.97;37.85;99184.84;5051065;28;20696;-71
2023/07/30 07:18:33;;;;;;;0.60;0.60;;;;;;;34.11;36.07;99175.09;5032441;28;20221;-70
2023/07/30 07:21:00;;;;;;;0.60;0.60;;;;;;;34.23;36.03;99176.94;5032585;28;20267;-71
2023/07/30 07:23:28;;;;;;;0.50;0.50;;;;;;;34.36;36.80;99177.97;5031934;28;20213;-70
2023/07/30 07:25:55;;;;;;;0.70;0.70;;;;;;;34.45;35.55;99182.06;5031458;28;21352;-70
2023/07/30 07:28:21;;;;;;;0.75;0.75;;;;;;;34.50;34.29;99171.66;5031473;28;20221;-71
2023/07/30 07:30:48;;;;;;;0.60;0.60;;;;;;;34.35;34.65;99173.69;5031978;28;20206;-71
2023/07/30 07:33:15;;;;;;;0.60;0.60;;;;;;;34.39;35.27;99166.91;5031873;28;20704;-70
2023/07/30 07:35:42;;;;;;;0.80;0.80;;;;;;;34.35;36.50;99176.34;5031860;28;20205;-70
2023/07/30 07:38:09;;;;;;;1.15;0.68;;;;;;;34.42;34.93;99166.50;5031068;28;20201;-70
2023/07/30 07:40:40;;;;;;;0.50;0.50;;;;;;;34.53;34.58;99169.41;5031583;28;20275;-70
2023/07/30 07:43:07;;;;;;;0.77;0.77;;;;;;;34.58;35.23;99169.59;5030233;28;20696;-70
2023/07/30 07:45:33;;;;;;;0.70;0.70;;;;;;;34.78;34.45;99166.94;5032170;28;20288;-70
2023/07/30 07:48:00;;;;;;;0.90;0.90;;;;;;;34.83;34.00;99169.81;5029126;28;20278;-71
2023/07/30 07:50:27;;;;;;;1.10;0.63;;;;;;;34.98;35.76;99165.06;5030815;28;20209;-70
2023/07/30 07:52:54;;;;;;;0.73;0.73;;;;;;;34.78;34.21;99157.09;5031618;28;20205;-70
2023/07/30 07:55:21;;;;;;;0.75;0.60;;;;;;;34.68;32.56;99161.22;5031197;28;20198;-70
2023/07/30 07:57:49;;;;;;;1.85;0.77;;;;;;;34.71;34.01;99156.28;5033835;28;20208;-70
2023/07/30 08:00:16;;;;;;;1.05;0.82;;;;;;;34.84;34.65;99152.78;5039172;28;20601;-70
2023/07/30 08:02:42;;;;;;;0.57;0.57;;;;;;;34.65;34.84;99156.28;5029057;28;20696;-70
2023/07/30 08:05:09;;;;;;;1.17;0.60;;;;;;;34.48;33.12;99155.03;5028976;28;20213;-70
2023/07/30 08:07:36;;;;;;;0.77;0.77;;;;;;;34.66;35.12;99158.78;5031259;28;20221;-70
2023/07/30 08:10:03;;;;;;;0.70;0.70;;;;;;;34.90;32.83;99146.63;5030820;28;20211;-70
2023/07/30 08:12:32;;;;;;;0.80;0.80;;;;;;;34.67;32.74;99148.94;5043213;28;20200;-69
2023/07/30 08:15:00;;;;;;;0.40;0.40;;;;;;;34.92;33.27;99144.59;5031232;28;20293;-70
2023/07/30 08:17:27;;;;;;;0.57;0.57;;;;;;;34.99;35.25;99142.72;5035687;28;20229;-69
2023/07/30 08:19:54;;;;;;;0.52;0.52;;;;;;;35.14;35.37;99138.00;5036582;28;20204;-70
2023/07/30 08:22:21;;;;;;;0.70;0.70;;;;;;;35.27;35.32;99134.47;5028409;28;20210;-71
2023/07/30 08:24:47;;;;;;;0.73;0.73;;;;;;;35.20;31.92;99139.81;5027017;28;20817;-67
2023/07/30 08:27:14;;;;;;;0.60;0.60;;;;;;;34.98;32.18;99137.59;5031286;28;20225;-67
2023/07/30 08:29:41;;;;;;;0.55;0.55;;;;;;;34.86;31.80;99140.09;5044513;28;20291;-67
2023/07/30 08:32:09;;;;;;;0.43;0.43;;;;;;;34.84;32.56;99134.13;5040495;28;20209;-67
2023/07/30 08:34:36;;;;;;;0.65;0.65;;;;;;;34.67;32.13;99127.63;5030414;28;20702;-66
2023/07/30 08:37:03;;;;;;;0.52;0.52;;;;;;;34.47;31.84;99126.78;5035290;28;20255;-67
2023/07/30 08:39:30;;;;;;;1.30;0.43;;;;;;;34.58;32.20;99112.84;5032981;28;20627;-67
2023/07/30 08:41:57;;;;;;;0.50;0.50;;;;;;;34.59;33.43;99112.66;5044158;28;20200;-67
2023/07/30 08:44:23;;;;;;;0.60;0.60;;;;;;;34.50;32.46;99105.09;5030584;28;20197;-67
2023/07/30 08:46:50;;;;;;;0.50;0.50;;;;;;;34.49;32.65;99109.59;5030830;28;20266;-67
2023/07/30 08:49:18;;;;;;;0.52;0.52;;;;;;;34.59;32.07;99094.00;5031330;28;20198;-67
2023/07/30 08:51:46;;;;;;;0.57;0.57;;;;;;;34.70;32.83;99100.59;5031120;28;20205;-66
2023/07/30 08:54:14;;;;;;;3.53;0.60;;;;;;;34.95;31.84;99087.41;5031079;28;20212;-67
2023/07/30 08:56:42;;;;;;;0.47;0.47;;;;;;;35.04;31.10;99089.63;5030944;28;20205;-67
2023/07/30 08:59:11;;;;;;;0.47;0.47;;;;;;;35.18;31.23;99088.59;5030465;28;20205;-67
2023/07/30 09:01:40;;;;;;;0.60;0.60;;;;;;;35.47;34.22;99086.38;5031387;28;20201;-67
2023/07/30 09:04:08;;;;;;;0.70;0.70;;;;;;;35.53;31.56;99085.53;5030668;28;20611;-67
2023/07/30 09:06:38;;;;;;;0.57;0.57;;;;;;;35.49;30.36;99086.97;5030559;28;20692;-67
2023/07/30 09:09:06;;;;;;;1.63;0.80;;;;;;;35.17;30.54;99075.44;5030396;28;20580;-67
2023/07/30 09:11:32;;;;;;;0.60;0.60;;;;;;;35.13;31.18;99074.22;5030726;28;20205;-66
2023/07/30 09:14:03;;;;;;;0.70;0.70;;;;;;;35.23;30.83;99075.44;5030713;28;20205;-67
2023/07/30 09:16:30;;;;;;;0.50;0.50;;;;;;;35.29;31.93;99071.09;5038174;28;20252;-67
2023/07/30 09:18:58;;;;;;;0.90;0.90;;;;;;;35.16;32.54;99063.97;5051107;28;20196;-67
2023/07/30 09:21:32;;;;;;;0.50;0.50;;;;;;;35.21;32.76;99061.50;5051138;28;20624;-67
2023/07/30 09:24:05;;;;;;;0.98;0.98;;;;;;;35.40;31.95;99053.59;5050495;28;20291;-67
2023/07/30 09:26:41;;;;;;;0.60;0.60;;;;;;;35.46;32.27;99056.22;5050765;28;20192;-67
2023/07/30 09:29:09;;;;;;;0.68;0.68;;;;;;;35.43;31.29;99027.34;5050884;28;20662;-67
2023/07/30 09:31:47;;;;;;;0.50;0.50;;;;;;;35.78;31.42;99051.75;5050705;28;20279;-66
2023/07/30 09:34:16;;;;;;;0.60;0.60;;;;;;;35.71;31.60;99043.78;5050327;28;20250;-67
2023/07/30 09:36:44;;;;;;;0.57;0.57;;;;;;;35.72;30.34;99041.94;5050470;28;20621;-67
2023/07/30 09:39:18;;;;;;;0.52;0.52;;;;;;;35.42;32.41;99035.53;5050070;28;20286;-67
2023/07/30 09:41:45;;;;;;;0.98;0.70;;;;;;;35.53;31.65;99029.53;5050349;28;20196;-67
2023/07/30 09:44:12;;;;;;;0.68;0.68;;;;;;;35.64;31.84;99023.53;5050974;28;20274;-67
2023/07/30 09:46:44;;;;;;;0.90;0.65;;;;;;;35.78;31.66;99025.06;5049363;28;20189;-66
2023/07/30 09:49:11;;;;;;;0.70;0.70;;;;;;;35.97;31.95;99024.09;5050700;28;20695;-67
2023/07/30 09:51:39;;;;;;;0.50;0.50;;;;;;;35.95;30.66;99020.00;5052318;28;20197;-67
2023/07/30 09:54:08;;;;;;;0.73;0.60;;;;;;;35.81;30.77;99017.44;5047102;28;20619;-67
2023/07/30 09:56:37;;;;;;;0.47;0.47;;;;;;;35.96;32.02;99001.13;5054041;28;20291;-67
2023/07/30 09:59:04;;;;;;;0.70;0.70;;;;;;;36.11;30.54;99009.63;5054679;28;20193;-67
2023/07/30 10:01:32;;;;;;;0.47;0.47;;;;;;;36.14;29.87;99006.53;5054448;28;20200;-66
2023/07/30 10:03:59;;;;;;;0.65;0.65;;;;;;;36.21;29.39;98996.59;5054527;28;20205;-66
2023/07/30 10:06:28;;;;;;;0.57;0.57;;;;;;;36.21;29.78;98993.94;5054203;28;20208;-66
2023/07/30 10:08:58;;;;;;;0.60;0.60;;;;;;;36.25;30.60;98995.09;5054400;28;20759;-67
2023/07/30 10:11:25;;;;;;;0.70;0.70;;;;;;;36.32;31.70;98985.19;5054310;28;20207;-66
2023/07/30 10:13:54;;;;;;;0.57;0.57;;;;;;;36.52;31.40;98984.13;5054434;28;20262;-66
2023/07/30 10:16:26;;;;;;;0.65;0.65;;;;;;;36.54;30.43;98976.78;5049342;28;20307;-67
2023/07/30 10:18:57;;;;;;;0.55;0.55;;;;;;;36.20;29.66;98978.94;5033291;28;20727;-66
2023/07/30 10:21:25;;;;;;;0.50;0.50;;;;;;;36.03;30.80;98975.16;5032756;28;20240;-67
2023/07/30 10:24:00;;;;;;;0.57;0.57;;;;;;;36.16;30.70;98969.75;5033418;28;20719;-67
2023/07/30 10:26:28;;;;;;;0.60;0.60;;;;;;;35.86;30.36;98963.44;5032128;28;20508;-67
2023/07/30 10:29:15;;;;;;;0.90;0.70;;;;;;;35.87;29.40;98959.72;5031922;28;20304;-67
2023/07/30 10:31:42;;;;;;;0.60;0.60;;;;;;;35.99;30.24;98957.16;5029035;28;20197;-67
2023/07/30 10:34:11;;;;;;;0.60;0.60;;;;;;;35.92;29.14;98967.91;5031780;28;20451;-70
2023/07/30 10:36:44;;;;;;;0.65;0.65;;;;;;;35.84;28.94;98954.84;5030953;28;20656;-70
2023/07/30 10:39:15;;;;;;;0.80;0.80;;;;;;;36.00;29.52;98959.59;5030259;28;20681;-70
2023/07/30 10:41:44;;;;;;;0.70;0.70;;;;;;;35.83;29.61;98954.00;5030409;28;20205;-69
2023/07/30 10:44:23;;;;;;;0.60;0.60;;;;;;;35.87;28.76;98946.38;5031802;28;20205;-71
2023/07/30 10:46:50;;;;;;;0.60;0.60;;;;;;;36.02;29.36;98946.06;5031789;28;20201;-71
2023/07/30 10:49:16;;;;;;;0.70;0.70;;;;;;;35.92;29.49;98949.22;5036287;28;20647;-70
2023/07/30 10:51:43;;;;;;;0.55;0.55;;;;;;;35.91;29.38;98934.25;5040594;28;20664;-71
2023/07/30 10:54:10;;;;;;;0.60;0.60;;;;;;;36.20;28.94;98933.56;5031988;28;20735;-69
2023/07/30 10:56:38;;;;;;;0.85;0.60;;;;;;;36.26;28.58;98932.66;5031900;28;20210;-71
2023/07/30 10:59:05;;;;;;;0.60;0.60;;;;;;;36.35;28.21;98935.06;5024061;28;20205;-69
2023/07/30 11:01:38;;;;;;;0.63;0.63;;;;;;;36.25;27.60;98932.91;5030487;28;20923;-70
2023/07/30 11:04:07;;;;;;;0.43;0.43;;;;;;;36.37;27.38;98927.63;5032111;28;20357;-69
2023/07/30 11:06:35;;;;;;;0.77;0.60;;;;;;;36.36;27.49;98928.66;5030841;28;20201;-70
2023/07/30 11:09:01;;;;;;;0.50;0.50;;;;;;;36.08;29.02;98921.19;5031257;28;20585;-72
2023/07/30 11:11:28;;;;;;;0.50;0.50;;;;;;;36.24;29.25;98917.94;5036670;28;20676;-69
2023/07/30 11:13:55;;;;;;;0.55;0.55;;;;;;;36.31;29.04;98916.81;5052538;28;20212;-70
2023/07/30 11:16:22;;;;;;;1.15;1.15;;;;;;;36.49;27.92;98915.97;5052431;28;20228;-68
2023/07/30 11:18:51;;;;;;;0.50;0.50;;;;;;;36.58;25.96;98919.19;5034268;28;20201;-66
2023/07/30 11:21:19;;;;;;;0.50;0.50;;;;;;;36.49;27.56;98912.47;5029580;28;20198;-66
2023/07/30 11:23:47;;;;;;;0.73;0.60;;;;;;;36.52;28.68;98904.84;5032567;28;20197;-65
2023/07/30 11:26:19;;;;;;;0.70;0.70;;;;;;;36.56;29.30;98906.06;5032047;28;20205;-67
2023/07/30 11:28:46;;;;;;;0.57;0.57;;;;;;;36.62;27.80;98904.34;5031148;28;20229;-67
2023/07/30 11:31:14;;;;;;;0.85;0.60;;;;;;;36.61;26.75;98902.72;5030094;28;20213;-66
2023/07/30 11:33:42;;;;;;;0.63;0.57;;;;;;;36.48;27.07;98902.88;5041228;28;20652;-67
2023/07/30 11:36:13;;;;;;;0.45;0.45;;;;;;;36.51;27.75;98899.75;5040205;28;20255;-67